Green Pond, Alabama
Current Conditions -  °F | °C
As of 10:53 PM on Sunday 19 Oct 2014 (Local Time) from KEET Reporting Station
Clear Clear  
Wind Chill: 53°   Ceiling: Unl
Heat Index: 53°   Visibility: 10mi
Dew Point: 50°   Wind: 0mph
Humidity: 89%   Direction: NA
Pressure: 30.1"   Gusts: NA
Location:  33.22°N, 87.13°W
Report Text: KEET 200353Z AUTO 00000KT 10SM CLR 12/10 A3010 RMK AO2 SLP190 T01170100
Loading
Personal Weather Stations






























Interactive Weather Map
Tropical Storm Tracking
New forecast layout! Learn more

10-Day Weather Forecast

Advertisements
Track Severe Weather on mobile